sensor_id;sensor_type;location;lat;lon;timestamp;temperature;humidity
22635;DHT22;11484;50.858;4.384;2022-10-22T00:01:15;16.50;99.90
22635;DHT22;11484;50.858;4.384;2022-10-22T00:03:42;16.50;99.90
22635;DHT22;11484;50.858;4.384;2022-10-22T00:06:08;16.50;99.90
22635;DHT22;11484;50.858;4.384;2022-10-22T00:08:34;16.60;99.90
22635;DHT22;11484;50.858;4.384;2022-10-22T00:11:07;16.50;99.90
22635;DHT22;11484;50.858;4.384;2022-10-22T00:13:33;16.50;99.90
22635;DHT22;11484;50.858;4.384;2022-10-22T00:15:59;16.60;99.90
22635;DHT22;11484;50.858;4.384;2022-10-22T00:18:25;16.50;99.90
22635;DHT22;11484;50.858;4.384;2022-10-22T00:20:50;16.50;99.90
22635;DHT22;11484;50.858;4.384;2022-10-22T00:23:16;16.50;99.90
22635;DHT22;11484;50.858;4.384;2022-10-22T00:25:42;16.50;99.90
22635;DHT22;11484;50.858;4.384;2022-10-22T00:28:08;16.50;99.90
22635;DHT22;11484;50.858;4.384;2022-10-22T00:30:36;16.50;99.90
22635;DHT22;11484;50.858;4.384;2022-10-22T00:33:01;16.50;99.90
22635;DHT22;11484;50.858;4.384;2022-10-22T00:35:27;16.50;99.90
22635;DHT22;11484;50.858;4.384;2022-10-22T00:37:53;16.50;99.90
22635;DHT22;11484;50.858;4.384;2022-10-22T00:40:19;16.50;99.90
22635;DHT22;11484;50.858;4.384;2022-10-22T00:42:45;16.50;99.90
22635;DHT22;11484;50.858;4.384;2022-10-22T00:50:12;16.40;99.90
22635;DHT22;11484;50.858;4.384;2022-10-22T00:52:38;16.40;99.90
22635;DHT22;11484;50.858;4.384;2022-10-22T00:55:04;16.30;99.90
22635;DHT22;11484;50.858;4.384;2022-10-22T00:57:31;16.30;99.90
22635;DHT22;11484;50.858;4.384;2022-10-22T00:59:57;16.20;99.90
22635;DHT22;11484;50.858;4.384;2022-10-22T01:02:23;16.20;99.90
22635;DHT22;11484;50.858;4.384;2022-10-22T01:04:48;16.30;99.90
22635;DHT22;11484;50.858;4.384;2022-10-22T01:07:16;16.30;99.90
22635;DHT22;11484;50.858;4.384;2022-10-22T01:17:24;16.30;99.90
22635;DHT22;11484;50.858;4.384;2022-10-22T01:22:39;16.20;99.90
22635;DHT22;11484;50.858;4.384;2022-10-22T01:30:10;16.10;99.90
22635;DHT22;11484;50.858;4.384;2022-10-22T01:32:50;16.10;99.90
22635;DHT22;11484;50.858;4.384;2022-10-22T01:35:21;16.10;99.90
22635;DHT22;11484;50.858;4.384;2022-10-22T01:37:51;16.10;99.90
22635;DHT22;11484;50.858;4.384;2022-10-22T01:40:18;16.20;99.90
22635;DHT22;11484;50.858;4.384;2022-10-22T01:43:20;16.20;99.90
22635;DHT22;11484;50.858;4.384;2022-10-22T01:45:55;16.30;99.90
22635;DHT22;11484;50.858;4.384;2022-10-22T01:53:48;16.20;99.90
22635;DHT22;11484;50.858;4.384;2022-10-22T02:01:55;16.30;99.90
22635;DHT22;11484;50.858;4.384;2022-10-22T02:04:47;16.30;99.90
22635;DHT22;11484;50.858;4.384;2022-10-22T02:07:18;16.30;99.90
22635;DHT22;11484;50.858;4.384;2022-10-22T02:09:45;16.20;99.90
22635;DHT22;11484;50.858;4.384;2022-10-22T02:12:12;16.20;99.90
22635;DHT22;11484;50.858;4.384;2022-10-22T02:14:40;16.20;99.90
22635;DHT22;11484;50.858;4.384;2022-10-22T02:17:12;16.20;99.90
22635;DHT22;11484;50.858;4.384;2022-10-22T02:19:59;16.10;99.90
22635;DHT22;11484;50.858;4.384;2022-10-22T02:22:26;16.10;99.90
22635;DHT22;11484;50.858;4.384;2022-10-22T02:24:52;16.20;99.90
22635;DHT22;11484;50.858;4.384;2022-10-22T02:30:07;16.10;99.90
22635;DHT22;11484;50.858;4.384;2022-10-22T02:35:20;16.10;99.90
22635;DHT22;11484;50.858;4.384;2022-10-22T02:37:46;16.10;99.90
22635;DHT22;11484;50.858;4.384;2022-10-22T02:40:12;16.10;99.90
22635;DHT22;11484;50.858;4.384;2022-10-22T02:42:39;16.10;99.90
22635;DHT22;11484;50.858;4.384;2022-10-22T02:45:06;16.10;99.90
22635;DHT22;11484;50.858;4.384;2022-10-22T02:47:32;16.10;99.90
22635;DHT22;11484;50.858;4.384;2022-10-22T02:49:58;16.10;99.90
22635;DHT22;11484;50.858;4.384;2022-10-22T02:52:23;16.10;99.90
22635;DHT22;11484;50.858;4.384;2022-10-22T02:54:49;16.10;99.90
22635;DHT22;11484;50.858;4.384;2022-10-22T02:57:15;16.10;99.90
22635;DHT22;11484;50.858;4.384;2022-10-22T02:59:40;16.00;99.90
22635;DHT22;11484;50.858;4.384;2022-10-22T03:02:06;16.00;99.90
22635;DHT22;11484;50.858;4.384;2022-10-22T03:04:33;16.00;99.90
22635;DHT22;11484;50.858;4.384;2022-10-22T03:06:59;16.00;99.90
22635;DHT22;11484;50.858;4.384;2022-10-22T03:09:25;16.00;99.90
22635;DHT22;11484;50.858;4.384;2022-10-22T03:11:51;16.00;99.90
22635;DHT22;11484;50.858;4.384;2022-10-22T03:14:17;16.00;99.90
22635;DHT22;11484;50.858;4.384;2022-10-22T03:16:43;16.00;99.90
22635;DHT22;11484;50.858;4.384;2022-10-22T03:19:08;15.90;99.90
22635;DHT22;11484;50.858;4.384;2022-10-22T03:21:43;15.90;99.90
22635;DHT22;11484;50.858;4.384;2022-10-22T03:24:21;15.90;99.90
22635;DHT22;11484;50.858;4.384;2022-10-22T03:26:49;15.90;99.90
22635;DHT22;11484;50.858;4.384;2022-10-22T03:29:16;15.90;99.90
22635;DHT22;11484;50.858;4.384;2022-10-22T03:31:42;15.90;99.90
22635;DHT22;11484;50.858;4.384;2022-10-22T03:34:08;15.90;99.90
22635;DHT22;11484;50.858;4.384;2022-10-22T03:36:37;15.90;99.90
22635;DHT22;11484;50.858;4.384;2022-10-22T03:39:04;16.00;99.90
22635;DHT22;11484;50.858;4.384;2022-10-22T03:41:30;15.90;99.90
22635;DHT22;11484;50.858;4.384;2022-10-22T03:43:56;16.00;99.90
22635;DHT22;11484;50.858;4.384;2022-10-22T03:46:22;16.00;99.90
22635;DHT22;11484;50.858;4.384;2022-10-22T03:48:48;16.00;99.90
22635;DHT22;11484;50.858;4.384;2022-10-22T03:51:13;16.00;99.90
22635;DHT22;11484;50.858;4.384;2022-10-22T03:53:39;16.10;99.90
22635;DHT22;11484;50.858;4.384;2022-10-22T03:56:09;16.10;99.90
22635;DHT22;11484;50.858;4.384;2022-10-22T03:58:36;16.10;99.90
22635;DHT22;11484;50.858;4.384;2022-10-22T04:01:07;16.10;99.90
22635;DHT22;11484;50.858;4.384;2022-10-22T04:03:33;16.10;99.90
22635;DHT22;11484;50.858;4.384;2022-10-22T04:06:10;16.10;99.90
22635;DHT22;11484;50.858;4.384;2022-10-22T04:08:38;16.10;99.90
22635;DHT22;11484;50.858;4.384;2022-10-22T04:11:04;16.20;99.90
22635;DHT22;11484;50.858;4.384;2022-10-22T04:13:30;16.20;99.90
22635;DHT22;11484;50.858;4.384;2022-10-22T04:16:12;16.20;99.90
22635;DHT22;11484;50.858;4.384;2022-10-22T04:18:39;16.20;99.90
22635;DHT22;11484;50.858;4.384;2022-10-22T04:21:07;16.20;99.90
22635;DHT22;11484;50.858;4.384;2022-10-22T04:23:34;16.20;99.90
22635;DHT22;11484;50.858;4.384;2022-10-22T04:26:02;16.20;99.90
22635;DHT22;11484;50.858;4.384;2022-10-22T04:28:28;16.00;99.90
22635;DHT22;11484;50.858;4.384;2022-10-22T04:30:53;15.90;99.90
22635;DHT22;11484;50.858;4.384;2022-10-22T04:33:20;15.90;99.90
22635;DHT22;11484;50.858;4.384;2022-10-22T04:35:46;15.90;99.90
22635;DHT22;11484;50.858;4.384;2022-10-22T04:38:11;15.90;99.90
22635;DHT22;11484;50.858;4.384;2022-10-22T04:40:37;15.90;99.90
22635;DHT22;11484;50.858;4.384;2022-10-22T04:43:03;15.90;99.90
22635;DHT22;11484;50.858;4.384;2022-10-22T04:45:29;15.90;99.90
22635;DHT22;11484;50.858;4.384;2022-10-22T04:47:55;15.90;99.90
22635;DHT22;11484;50.858;4.384;2022-10-22T04:50:21;16.00;99.90
22635;DHT22;11484;50.858;4.384;2022-10-22T04:52:46;16.00;99.90
22635;DHT22;11484;50.858;4.384;2022-10-22T04:55:12;16.00;99.90
22635;DHT22;11484;50.858;4.384;2022-10-22T04:57:38;16.00;99.90
22635;DHT22;11484;50.858;4.384;2022-10-22T05:00:04;16.00;99.90
22635;DHT22;11484;50.858;4.384;2022-10-22T05:02:30;16.10;99.90
22635;DHT22;11484;50.858;4.384;2022-10-22T05:04:55;16.10;99.90
22635;DHT22;11484;50.858;4.384;2022-10-22T05:07:21;16.30;99.90
22635;DHT22;11484;50.858;4.384;2022-10-22T05:09:48;16.30;99.90
22635;DHT22;11484;50.858;4.384;2022-10-22T05:12:14;16.40;99.90
22635;DHT22;11484;50.858;4.384;2022-10-22T05:14:39;16.50;99.90
22635;DHT22;11484;50.858;4.384;2022-10-22T05:17:05;16.50;99.90
22635;DHT22;11484;50.858;4.384;2022-10-22T05:19:31;16.50;99.90
22635;DHT22;11484;50.858;4.384;2022-10-22T05:21:59;16.40;99.90
22635;DHT22;11484;50.858;4.384;2022-10-22T05:24:26;16.50;99.90
22635;DHT22;11484;50.858;4.384;2022-10-22T05:26:53;16.50;99.90
22635;DHT22;11484;50.858;4.384;2022-10-22T05:29:19;16.60;99.90
22635;DHT22;11484;50.858;4.384;2022-10-22T05:31:45;16.70;99.90
22635;DHT22;11484;50.858;4.384;2022-10-22T05:34:11;16.70;99.90
22635;DHT22;11484;50.858;4.384;2022-10-22T05:36:37;16.70;99.90
22635;DHT22;11484;50.858;4.384;2022-10-22T05:39:04;16.60;99.90
22635;DHT22;11484;50.858;4.384;2022-10-22T05:41:31;16.60;99.90
22635;DHT22;11484;50.858;4.384;2022-10-22T05:43:58;16.70;99.90
22635;DHT22;11484;50.858;4.384;2022-10-22T05:46:26;16.70;99.90
22635;DHT22;11484;50.858;4.384;2022-10-22T05:48:57;16.80;99.90
22635;DHT22;11484;50.858;4.384;2022-10-22T05:51:24;16.80;99.90
22635;DHT22;11484;50.858;4.384;2022-10-22T05:53:56;16.80;99.90
22635;DHT22;11484;50.858;4.384;2022-10-22T05:56:22;16.80;99.90
22635;DHT22;11484;50.858;4.384;2022-10-22T05:58:48;16.90;99.90
22635;DHT22;11484;50.858;4.384;2022-10-22T06:01:19;17.00;99.90
22635;DHT22;11484;50.858;4.384;2022-10-22T06:03:46;16.90;99.90
22635;DHT22;11484;50.858;4.384;2022-10-22T06:12:01;16.60;99.90
22635;DHT22;11484;50.858;4.384;2022-10-22T06:14:29;16.60;99.90
22635;DHT22;11484;50.858;4.384;2022-10-22T06:16:58;16.60;99.90
22635;DHT22;11484;50.858;4.384;2022-10-22T06:19:24;16.70;99.90
22635;DHT22;11484;50.858;4.384;2022-10-22T06:21:51;16.60;99.90
22635;DHT22;11484;50.858;4.384;2022-10-22T06:24:17;16.70;99.90
22635;DHT22;11484;50.858;4.384;2022-10-22T06:26:42;16.80;99.90
22635;DHT22;11484;50.858;4.384;2022-10-22T06:29:08;16.80;99.90
22635;DHT22;11484;50.858;4.384;2022-10-22T06:31:34;16.70;99.90
22635;DHT22;11484;50.858;4.384;2022-10-22T06:34:04;16.70;99.90
22635;DHT22;11484;50.858;4.384;2022-10-22T06:36:30;16.80;99.90
22635;DHT22;11484;50.858;4.384;2022-10-22T06:38:56;16.90;99.90
22635;DHT22;11484;50.858;4.384;2022-10-22T06:41:22;16.90;99.90
22635;DHT22;11484;50.858;4.384;2022-10-22T06:43:47;16.80;99.90
22635;DHT22;11484;50.858;4.384;2022-10-22T06:46:16;16.80;99.90
22635;DHT22;11484;50.858;4.384;2022-10-22T06:48:42;16.80;99.90
22635;DHT22;11484;50.858;4.384;2022-10-22T06:51:10;16.70;99.90
22635;DHT22;11484;50.858;4.384;2022-10-22T06:53:37;16.80;99.90
22635;DHT22;11484;50.858;4.384;2022-10-22T06:56:11;17.00;99.90
22635;DHT22;11484;50.858;4.384;2022-10-22T06:58:37;17.10;99.90
22635;DHT22;11484;50.858;4.384;2022-10-22T07:01:11;17.10;99.90
22635;DHT22;11484;50.858;4.384;2022-10-22T07:03:37;17.20;99.90
22635;DHT22;11484;50.858;4.384;2022-10-22T07:06:06;17.10;99.90
22635;DHT22;11484;50.858;4.384;2022-10-22T07:08:32;17.10;99.90
22635;DHT22;11484;50.858;4.384;2022-10-22T07:11:06;17.20;99.90
22635;DHT22;11484;50.858;4.384;2022-10-22T07:13:32;17.30;99.90
22635;DHT22;11484;50.858;4.384;2022-10-22T07:15:58;17.30;99.90
22635;DHT22;11484;50.858;4.384;2022-10-22T07:18:23;17.30;99.90
22635;DHT22;11484;50.858;4.384;2022-10-22T07:20:50;17.30;99.90
22635;DHT22;11484;50.858;4.384;2022-10-22T07:23:16;17.40;99.90
22635;DHT22;11484;50.858;4.384;2022-10-22T07:25:42;17.40;99.90
22635;DHT22;11484;50.858;4.384;2022-10-22T07:28:09;17.50;99.90
22635;DHT22;11484;50.858;4.384;2022-10-22T07:30:36;17.60;99.90
22635;DHT22;11484;50.858;4.384;2022-10-22T07:33:03;17.70;99.90
22635;DHT22;11484;50.858;4.384;2022-10-22T07:35:29;17.60;99.90
22635;DHT22;11484;50.858;4.384;2022-10-22T07:37:55;17.60;99.90
22635;DHT22;11484;50.858;4.384;2022-10-22T07:40:21;17.60;99.90
22635;DHT22;11484;50.858;4.384;2022-10-22T07:42:47;17.60;99.90
22635;DHT22;11484;50.858;4.384;2022-10-22T07:45:12;17.70;99.90
22635;DHT22;11484;50.858;4.384;2022-10-22T07:47:38;17.80;99.90
22635;DHT22;11484;50.858;4.384;2022-10-22T07:50:04;17.80;99.90
22635;DHT22;11484;50.858;4.384;2022-10-22T07:52:31;17.90;99.90
22635;DHT22;11484;50.858;4.384;2022-10-22T07:54:57;18.10;99.90
22635;DHT22;11484;50.858;4.384;2022-10-22T07:57:23;18.20;99.90
22635;DHT22;11484;50.858;4.384;2022-10-22T07:59:49;18.20;99.90
22635;DHT22;11484;50.858;4.384;2022-10-22T08:02:15;18.30;99.90
22635;DHT22;11484;50.858;4.384;2022-10-22T08:04:41;18.30;99.90
22635;DHT22;11484;50.858;4.384;2022-10-22T08:07:07;18.30;99.90
22635;DHT22;11484;50.858;4.384;2022-10-22T08:09:32;18.30;99.90
22635;DHT22;11484;50.858;4.384;2022-10-22T08:11:58;18.40;99.90
22635;DHT22;11484;50.858;4.384;2022-10-22T08:14:24;18.30;99.90
22635;DHT22;11484;50.858;4.384;2022-10-22T08:16:50;18.30;99.90
22635;DHT22;11484;50.858;4.384;2022-10-22T08:19:16;18.50;99.90
22635;DHT22;11484;50.858;4.384;2022-10-22T08:21:46;18.60;99.90
22635;DHT22;11484;50.858;4.384;2022-10-22T08:24:12;18.70;99.90
22635;DHT22;11484;50.858;4.384;2022-10-22T08:26:39;18.70;99.90
22635;DHT22;11484;50.858;4.384;2022-10-22T08:29:05;18.80;99.90
22635;DHT22;11484;50.858;4.384;2022-10-22T08:31:31;18.90;99.90
22635;DHT22;11484;50.858;4.384;2022-10-22T08:33:57;18.90;99.90
22635;DHT22;11484;50.858;4.384;2022-10-22T08:36:23;19.00;99.90
22635;DHT22;11484;50.858;4.384;2022-10-22T08:38:49;18.90;99.90
22635;DHT22;11484;50.858;4.384;2022-10-22T08:41:20;18.80;99.90
22635;DHT22;11484;50.858;4.384;2022-10-22T08:46:45;18.80;99.90
22635;DHT22;11484;50.858;4.384;2022-10-22T08:49:26;18.70;99.90
22635;DHT22;11484;50.858;4.384;2022-10-22T08:51:54;18.40;99.90
22635;DHT22;11484;50.858;4.384;2022-10-22T09:05:36;18.90;99.90
22635;DHT22;11484;50.858;4.384;2022-10-22T09:08:10;19.10;99.90
22635;DHT22;11484;50.858;4.384;2022-10-22T09:10:39;19.10;99.90
22635;DHT22;11484;50.858;4.384;2022-10-22T09:13:10;19.10;99.90
22635;DHT22;11484;50.858;4.384;2022-10-22T09:15:38;19.20;99.90
22635;DHT22;11484;50.858;4.384;2022-10-22T09:18:29;19.30;99.90
22635;DHT22;11484;50.858;4.384;2022-10-22T09:26:48;19.40;99.90
22635;DHT22;11484;50.858;4.384;2022-10-22T09:29:18;19.40;99.90
22635;DHT22;11484;50.858;4.384;2022-10-22T09:31:46;19.40;99.90
22635;DHT22;11484;50.858;4.384;2022-10-22T09:34:14;19.40;99.90
22635;DHT22;11484;50.858;4.384;2022-10-22T09:36:43;19.40;99.90
22635;DHT22;11484;50.858;4.384;2022-10-22T09:39:25;19.40;99.90
22635;DHT22;11484;50.858;4.384;2022-10-22T09:41:51;19.50;99.90
22635;DHT22;11484;50.858;4.384;2022-10-22T09:44:20;19.50;99.90
22635;DHT22;11484;50.858;4.384;2022-10-22T09:46:45;19.40;99.90
22635;DHT22;11484;50.858;4.384;2022-10-22T09:49:14;19.50;99.90
22635;DHT22;11484;50.858;4.384;2022-10-22T09:51:58;19.60;99.90
22635;DHT22;11484;50.858;4.384;2022-10-22T09:54:36;19.70;99.90
22635;DHT22;11484;50.858;4.384;2022-10-22T09:57:19;19.80;99.90
22635;DHT22;11484;50.858;4.384;2022-10-22T09:59:49;19.80;99.90
22635;DHT22;11484;50.858;4.384;2022-10-22T10:02:20;20.00;99.90
22635;DHT22;11484;50.858;4.384;2022-10-22T10:04:51;20.20;99.90
22635;DHT22;11484;50.858;4.384;2022-10-22T10:07:23;20.40;99.90
22635;DHT22;11484;50.858;4.384;2022-10-22T10:09:52;20.30;99.90
22635;DHT22;11484;50.858;4.384;2022-10-22T10:12:43;20.30;99.90
22635;DHT22;11484;50.858;4.384;2022-10-22T10:24:26;20.30;99.90
22635;DHT22;11484;50.858;4.384;2022-10-22T10:38:18;20.40;99.90
22635;DHT22;11484;50.858;4.384;2022-10-22T10:41:07;20.50;99.90
22635;DHT22;11484;50.858;4.384;2022-10-22T10:43:58;20.40;99.90
22635;DHT22;11484;50.858;4.384;2022-10-22T10:49:30;20.10;99.90
22635;DHT22;11484;50.858;4.384;2022-10-22T11:00:18;19.90;99.90
22635;DHT22;11484;50.858;4.384;2022-10-22T11:03:08;19.80;99.90
22635;DHT22;11484;50.858;4.384;2022-10-22T11:08:20;19.90;99.90
22635;DHT22;11484;50.858;4.384;2022-10-22T11:10:51;20.00;99.90
22635;DHT22;11484;50.858;4.384;2022-10-22T11:14:04;20.00;99.90
22635;DHT22;11484;50.858;4.384;2022-10-22T11:19:15;20.00;99.90
22635;DHT22;11484;50.858;4.384;2022-10-22T11:24:53;20.10;99.90
22635;DHT22;11484;50.858;4.384;2022-10-22T11:30:20;20.10;99.90
22635;DHT22;11484;50.858;4.384;2022-10-22T11:32:53;20.00;99.90
22635;DHT22;11484;50.858;4.384;2022-10-22T11:35:23;20.10;99.90
22635;DHT22;11484;50.858;4.384;2022-10-22T11:37:50;20.30;99.90
22635;DHT22;11484;50.858;4.384;2022-10-22T11:40:38;20.50;99.90
22635;DHT22;11484;50.858;4.384;2022-10-22T11:43:10;20.50;99.90
22635;DHT22;11484;50.858;4.384;2022-10-22T11:45:39;20.60;99.90
22635;DHT22;11484;50.858;4.384;2022-10-22T11:48:18;20.70;99.90
22635;DHT22;11484;50.858;4.384;2022-10-22T11:50:57;20.50;99.90
22635;DHT22;11484;50.858;4.384;2022-10-22T11:55:56;20.40;99.90
22635;DHT22;11484;50.858;4.384;2022-10-22T11:58:29;20.60;99.90
22635;DHT22;11484;50.858;4.384;2022-10-22T12:01:11;20.80;99.90
22635;DHT22;11484;50.858;4.384;2022-10-22T12:04:38;20.90;99.90
22635;DHT22;11484;50.858;4.384;2022-10-22T12:07:02;21.10;99.90
22635;DHT22;11484;50.858;4.384;2022-10-22T12:09:29;21.10;99.90
22635;DHT22;11484;50.858;4.384;2022-10-22T12:12:23;21.20;99.90
22635;DHT22;11484;50.858;4.384;2022-10-22T12:14:56;21.30;99.90
22635;DHT22;11484;50.858;4.384;2022-10-22T12:17:24;21.20;99.90
22635;DHT22;11484;50.858;4.384;2022-10-22T12:20:12;21.20;99.90
22635;DHT22;11484;50.858;4.384;2022-10-22T12:22:39;21.10;99.90
22635;DHT22;11484;50.858;4.384;2022-10-22T12:25:22;21.10;99.90
22635;DHT22;11484;50.858;4.384;2022-10-22T12:27:54;21.00;99.90
22635;DHT22;11484;50.858;4.384;2022-10-22T12:30:31;21.10;99.90
22635;DHT22;11484;50.858;4.384;2022-10-22T12:33:01;21.00;99.90
22635;DHT22;11484;50.858;4.384;2022-10-22T12:35:30;20.90;99.90
22635;DHT22;11484;50.858;4.384;2022-10-22T12:38:10;20.90;99.90
22635;DHT22;11484;50.858;4.384;2022-10-22T12:40:39;20.80;99.90
22635;DHT22;11484;50.858;4.384;2022-10-22T12:43:25;20.80;99.90
22635;DHT22;11484;50.858;4.384;2022-10-22T12:45:52;20.70;99.90
22635;DHT22;11484;50.858;4.384;2022-10-22T12:48:23;20.60;99.90
22635;DHT22;11484;50.858;4.384;2022-10-22T12:51:01;20.50;99.90
22635;DHT22;11484;50.858;4.384;2022-10-22T12:53:33;20.30;99.90
22635;DHT22;11484;50.858;4.384;2022-10-22T12:56:08;20.20;99.90
22635;DHT22;11484;50.858;4.384;2022-10-22T13:01:26;20.30;99.90
22635;DHT22;11484;50.858;4.384;2022-10-22T13:04:12;20.30;99.90
22635;DHT22;11484;50.858;4.384;2022-10-22T13:06:51;20.50;99.90
22635;DHT22;11484;50.858;4.384;2022-10-22T13:09:23;20.50;99.90
22635;DHT22;11484;50.858;4.384;2022-10-22T13:11:56;20.50;99.90
22635;DHT22;11484;50.858;4.384;2022-10-22T13:14:31;20.70;99.90
22635;DHT22;11484;50.858;4.384;2022-10-22T13:17:14;20.80;99.90
22635;DHT22;11484;50.858;4.384;2022-10-22T13:22:34;21.00;99.90
22635;DHT22;11484;50.858;4.384;2022-10-22T13:28:02;20.90;99.90
22635;DHT22;11484;50.858;4.384;2022-10-22T13:30:36;20.80;99.90
22635;DHT22;11484;50.858;4.384;2022-10-22T13:33:04;20.70;99.90
22635;DHT22;11484;50.858;4.384;2022-10-22T13:35:33;20.60;99.90
22635;DHT22;11484;50.858;4.384;2022-10-22T13:38:00;20.70;99.90
22635;DHT22;11484;50.858;4.384;2022-10-22T13:40:26;20.70;99.90
22635;DHT22;11484;50.858;4.384;2022-10-22T13:42:52;20.70;99.90
22635;DHT22;11484;50.858;4.384;2022-10-22T13:45:18;20.70;99.90
22635;DHT22;11484;50.858;4.384;2022-10-22T13:47:48;20.70;99.90
22635;DHT22;11484;50.858;4.384;2022-10-22T13:50:16;20.50;99.90
22635;DHT22;11484;50.858;4.384;2022-10-22T13:52:50;20.40;99.90
22635;DHT22;11484;50.858;4.384;2022-10-22T13:55:23;20.20;99.90
22635;DHT22;11484;50.858;4.384;2022-10-22T13:58:17;20.10;99.90
22635;DHT22;11484;50.858;4.384;2022-10-22T14:00:45;20.10;99.90
22635;DHT22;11484;50.858;4.384;2022-10-22T14:03:17;20.10;99.90
22635;DHT22;11484;50.858;4.384;2022-10-22T14:05:47;20.20;99.90
22635;DHT22;11484;50.858;4.384;2022-10-22T14:08:19;20.30;99.90
22635;DHT22;11484;50.858;4.384;2022-10-22T14:10:45;20.40;99.90
22635;DHT22;11484;50.858;4.384;2022-10-22T14:13:12;20.50;99.90
22635;DHT22;11484;50.858;4.384;2022-10-22T14:15:38;20.50;99.90
22635;DHT22;11484;50.858;4.384;2022-10-22T14:18:06;20.40;99.90
22635;DHT22;11484;50.858;4.384;2022-10-22T14:20:35;20.50;99.90
22635;DHT22;11484;50.858;4.384;2022-10-22T14:23:19;20.50;99.90
22635;DHT22;11484;50.858;4.384;2022-10-22T14:25:46;20.50;99.90
22635;DHT22;11484;50.858;4.384;2022-10-22T14:28:12;20.50;99.90
22635;DHT22;11484;50.858;4.384;2022-10-22T14:30:38;20.50;99.90
22635;DHT22;11484;50.858;4.384;2022-10-22T14:33:20;20.60;99.90
22635;DHT22;11484;50.858;4.384;2022-10-22T14:35:49;20.60;99.90
22635;DHT22;11484;50.858;4.384;2022-10-22T14:38:15;20.70;99.90
22635;DHT22;11484;50.858;4.384;2022-10-22T14:40:41;20.70;99.90
22635;DHT22;11484;50.858;4.384;2022-10-22T14:43:22;20.70;99.90
22635;DHT22;11484;50.858;4.384;2022-10-22T14:45:48;20.80;99.90
22635;DHT22;11484;50.858;4.384;2022-10-22T14:48:14;20.80;99.90
22635;DHT22;11484;50.858;4.384;2022-10-22T14:50:41;20.80;99.90
22635;DHT22;11484;50.858;4.384;2022-10-22T14:53:07;20.80;99.90
22635;DHT22;11484;50.858;4.384;2022-10-22T14:55:33;20.80;99.90
22635;DHT22;11484;50.858;4.384;2022-10-22T14:58:01;20.70;99.90
22635;DHT22;11484;50.858;4.384;2022-10-22T15:00:27;20.60;99.90
22635;DHT22;11484;50.858;4.384;2022-10-22T15:02:53;20.60;99.90
22635;DHT22;11484;50.858;4.384;2022-10-22T15:05:21;20.40;99.90
22635;DHT22;11484;50.858;4.384;2022-10-22T15:07:47;20.10;99.90
22635;DHT22;11484;50.858;4.384;2022-10-22T15:10:13;20.10;99.90
22635;DHT22;11484;50.858;4.384;2022-10-22T15:12:39;20.10;99.90
22635;DHT22;11484;50.858;4.384;2022-10-22T15:15:05;20.10;99.90
22635;DHT22;11484;50.858;4.384;2022-10-22T15:17:31;20.20;99.90
22635;DHT22;11484;50.858;4.384;2022-10-22T15:19:57;20.30;99.90
22635;DHT22;11484;50.858;4.384;2022-10-22T15:22:25;20.40;99.90
22635;DHT22;11484;50.858;4.384;2022-10-22T15:24:53;20.40;99.90
22635;DHT22;11484;50.858;4.384;2022-10-22T15:27:18;20.50;99.90
22635;DHT22;11484;50.858;4.384;2022-10-22T15:29:44;20.40;99.90
22635;DHT22;11484;50.858;4.384;2022-10-22T15:32:10;20.40;99.90
22635;DHT22;11484;50.858;4.384;2022-10-22T15:34:37;20.40;99.90
22635;DHT22;11484;50.858;4.384;2022-10-22T15:37:05;20.40;99.90
22635;DHT22;11484;50.858;4.384;2022-10-22T15:39:32;20.40;99.90
22635;DHT22;11484;50.858;4.384;2022-10-22T15:42:03;20.40;99.90
22635;DHT22;11484;50.858;4.384;2022-10-22T15:44:39;20.40;99.90
22635;DHT22;11484;50.858;4.384;2022-10-22T15:47:05;20.50;99.90
22635;DHT22;11484;50.858;4.384;2022-10-22T15:49:33;20.60;99.90
22635;DHT22;11484;50.858;4.384;2022-10-22T15:52:00;20.70;99.90
22635;DHT22;11484;50.858;4.384;2022-10-22T15:54:32;20.60;99.90
22635;DHT22;11484;50.858;4.384;2022-10-22T15:56:59;20.50;99.90
22635;DHT22;11484;50.858;4.384;2022-10-22T15:59:27;20.40;99.90
22635;DHT22;11484;50.858;4.384;2022-10-22T16:01:53;20.40;99.90
22635;DHT22;11484;50.858;4.384;2022-10-22T16:04:19;20.30;99.90
22635;DHT22;11484;50.858;4.384;2022-10-22T16:06:51;20.30;99.90
22635;DHT22;11484;50.858;4.384;2022-10-22T16:09:25;20.30;99.90
22635;DHT22;11484;50.858;4.384;2022-10-22T16:11:53;20.30;99.90
22635;DHT22;11484;50.858;4.384;2022-10-22T16:14:20;20.20;99.90
22635;DHT22;11484;50.858;4.384;2022-10-22T16:16:49;20.10;99.90
22635;DHT22;11484;50.858;4.384;2022-10-22T16:19:16;20.00;99.90
22635;DHT22;11484;50.858;4.384;2022-10-22T16:21:42;19.90;99.90
22635;DHT22;11484;50.858;4.384;2022-10-22T16:24:10;19.80;99.90
22635;DHT22;11484;50.858;4.384;2022-10-22T16:26:36;19.80;99.90
22635;DHT22;11484;50.858;4.384;2022-10-22T16:29:03;19.70;99.90
22635;DHT22;11484;50.858;4.384;2022-10-22T16:31:29;19.70;99.90
22635;DHT22;11484;50.858;4.384;2022-10-22T16:33:56;19.70;99.90
22635;DHT22;11484;50.858;4.384;2022-10-22T16:36:22;19.70;99.90
22635;DHT22;11484;50.858;4.384;2022-10-22T16:38:48;19.70;99.90
22635;DHT22;11484;50.858;4.384;2022-10-22T16:41:15;19.70;99.90
22635;DHT22;11484;50.858;4.384;2022-10-22T16:43:41;19.70;99.90
22635;DHT22;11484;50.858;4.384;2022-10-22T16:46:08;19.60;99.90
22635;DHT22;11484;50.858;4.384;2022-10-22T16:48:34;19.60;99.90
22635;DHT22;11484;50.858;4.384;2022-10-22T16:51:06;19.60;99.90
22635;DHT22;11484;50.858;4.384;2022-10-22T16:53:32;19.60;99.90
22635;DHT22;11484;50.858;4.384;2022-10-22T16:55:58;19.60;99.90
22635;DHT22;11484;50.858;4.384;2022-10-22T16:58:25;19.50;99.90
22635;DHT22;11484;50.858;4.384;2022-10-22T17:00:50;19.50;99.90
22635;DHT22;11484;50.858;4.384;2022-10-22T17:03:16;19.40;99.90
22635;DHT22;11484;50.858;4.384;2022-10-22T17:05:42;19.40;99.90
22635;DHT22;11484;50.858;4.384;2022-10-22T17:08:08;19.30;99.90
22635;DHT22;11484;50.858;4.384;2022-10-22T17:10:37;19.20;99.90
22635;DHT22;11484;50.858;4.384;2022-10-22T17:13:04;19.10;99.90
22635;DHT22;11484;50.858;4.384;2022-10-22T17:15:30;19.10;99.90
22635;DHT22;11484;50.858;4.384;2022-10-22T17:17:59;19.00;99.90
22635;DHT22;11484;50.858;4.384;2022-10-22T17:20:25;19.00;99.90
22635;DHT22;11484;50.858;4.384;2022-10-22T17:22:50;19.00;99.90
22635;DHT22;11484;50.858;4.384;2022-10-22T17:25:21;19.00;99.90
22635;DHT22;11484;50.858;4.384;2022-10-22T17:27:48;19.00;99.90
22635;DHT22;11484;50.858;4.384;2022-10-22T17:30:16;19.00;99.90
22635;DHT22;11484;50.858;4.384;2022-10-22T17:32:42;18.90;99.90
22635;DHT22;11484;50.858;4.384;2022-10-22T17:35:08;18.90;99.90
22635;DHT22;11484;50.858;4.384;2022-10-22T17:37:34;18.90;99.90
22635;DHT22;11484;50.858;4.384;2022-10-22T17:40:01;18.90;99.90